sensor_id;sensor_type;location;lat;lon;timestamp;P1;durP1;ratioP1;P2;durP2;ratioP2
53022;SDS011;38913;44.338;11.206;2023-07-16T00:02:05;4.50;;;3.97;;
53022;SDS011;38913;44.338;11.206;2023-07-16T00:04:31;5.80;;;4.00;;
53022;SDS011;38913;44.338;11.206;2023-07-16T00:06:56;5.53;;;4.03;;
53022;SDS011;38913;44.338;11.206;2023-07-16T00:09:22;5.53;;;4.13;;
53022;SDS011;38913;44.338;11.206;2023-07-16T00:11:47;5.83;;;4.17;;
53022;SDS011;38913;44.338;11.206;2023-07-16T00:14:12;5.32;;;4.28;;
53022;SDS011;38913;44.338;11.206;2023-07-16T00:16:37;6.87;;;4.00;;
53022;SDS011;38913;44.338;11.206;2023-07-16T00:19:03;7.40;;;4.22;;
53022;SDS011;38913;44.338;11.206;2023-07-16T00:21:28;7.23;;;4.60;;
53022;SDS011;38913;44.338;11.206;2023-07-16T00:23:53;6.47;;;4.10;;
53022;SDS011;38913;44.338;11.206;2023-07-16T00:26:18;4.97;;;4.30;;
53022;SDS011;38913;44.338;11.206;2023-07-16T00:28:44;4.07;;;3.53;;
53022;SDS011;38913;44.338;11.206;2023-07-16T00:31:09;8.27;;;4.23;;
53022;SDS011;38913;44.338;11.206;2023-07-16T00:33:35;6.53;;;4.13;;
53022;SDS011;38913;44.338;11.206;2023-07-16T00:36:00;6.93;;;4.47;;
53022;SDS011;38913;44.338;11.206;2023-07-16T00:38:25;6.80;;;4.50;;
53022;SDS011;38913;44.338;11.206;2023-07-16T00:40:50;4.57;;;3.70;;
53022;SDS011;38913;44.338;11.206;2023-07-16T00:43:16;4.33;;;3.87;;
53022;SDS011;38913;44.338;11.206;2023-07-16T00:45:41;6.75;;;4.20;;
53022;SDS011;38913;44.338;11.206;2023-07-16T00:48:07;6.35;;;4.13;;
53022;SDS011;38913;44.338;11.206;2023-07-16T00:50:33;5.53;;;4.13;;
53022;SDS011;38913;44.338;11.206;2023-07-16T00:53:01;5.93;;;4.20;;
53022;SDS011;38913;44.338;11.206;2023-07-16T00:55:28;5.80;;;3.88;;
53022;SDS011;38913;44.338;11.206;2023-07-16T00:57:54;5.93;;;4.78;;
53022;SDS011;38913;44.338;11.206;2023-07-16T01:00:21;7.30;;;4.38;;
53022;SDS011;38913;44.338;11.206;2023-07-16T01:02:46;6.30;;;4.28;;
53022;SDS011;38913;44.338;11.206;2023-07-16T01:05:11;6.83;;;4.50;;
53022;SDS011;38913;44.338;11.206;2023-07-16T01:07:36;7.00;;;4.93;;
53022;SDS011;38913;44.338;11.206;2023-07-16T01:10:02;5.47;;;3.97;;
53022;SDS011;38913;44.338;11.206;2023-07-16T01:12:29;6.93;;;4.32;;
53022;SDS011;38913;44.338;11.206;2023-07-16T01:14:56;5.55;;;4.13;;
53022;SDS011;38913;44.338;11.206;2023-07-16T01:17:21;4.78;;;4.30;;
53022;SDS011;38913;44.338;11.206;2023-07-16T01:19:46;5.27;;;4.10;;
53022;SDS011;38913;44.338;11.206;2023-07-16T01:29:57;6.32;;;4.63;;
53022;SDS011;38913;44.338;11.206;2023-07-16T01:32:23;6.63;;;4.25;;
53022;SDS011;38913;44.338;11.206;2023-07-16T01:34:48;5.88;;;4.00;;
53022;SDS011;38913;44.338;11.206;2023-07-16T01:37:14;5.10;;;4.22;;
53022;SDS011;38913;44.338;11.206;2023-07-16T01:39:39;4.83;;;4.17;;
53022;SDS011;38913;44.338;11.206;2023-07-16T01:42:05;4.97;;;4.10;;
53022;SDS011;38913;44.338;11.206;2023-07-16T01:44:30;6.57;;;4.32;;
53022;SDS011;38913;44.338;11.206;2023-07-16T01:47:11;5.03;;;4.23;;
53022;SDS011;38913;44.338;11.206;2023-07-16T01:49:37;5.65;;;3.90;;
53022;SDS011;38913;44.338;11.206;2023-07-16T01:52:03;4.25;;;3.85;;
53022;SDS011;38913;44.338;11.206;2023-07-16T01:54:29;5.80;;;4.38;;
53022;SDS011;38913;44.338;11.206;2023-07-16T01:56:54;6.00;;;3.90;;
53022;SDS011;38913;44.338;11.206;2023-07-16T01:59:19;4.97;;;4.23;;
53022;SDS011;38913;44.338;11.206;2023-07-16T02:01:45;5.93;;;3.90;;
53022;SDS011;38913;44.338;11.206;2023-07-16T02:04:10;4.63;;;3.77;;
53022;SDS011;38913;44.338;11.206;2023-07-16T02:06:35;4.97;;;4.03;;
53022;SDS011;38913;44.338;11.206;2023-07-16T02:09:00;5.10;;;4.10;;
53022;SDS011;38913;44.338;11.206;2023-07-16T02:11:25;5.60;;;4.40;;
53022;SDS011;38913;44.338;11.206;2023-07-16T02:13:51;4.37;;;3.77;;
53022;SDS011;38913;44.338;11.206;2023-07-16T02:16:16;6.10;;;4.00;;
53022;SDS011;38913;44.338;11.206;2023-07-16T02:18:41;7.17;;;4.03;;
53022;SDS011;38913;44.338;11.206;2023-07-16T02:21:06;4.40;;;4.00;;
53022;SDS011;38913;44.338;11.206;2023-07-16T02:23:32;5.20;;;4.43;;
53022;SDS011;38913;44.338;11.206;2023-07-16T02:25:57;6.43;;;4.10;;
53022;SDS011;38913;44.338;11.206;2023-07-16T02:28:22;6.27;;;4.50;;
53022;SDS011;38913;44.338;11.206;2023-07-16T02:30:48;5.72;;;4.40;;
53022;SDS011;38913;44.338;11.206;2023-07-16T02:33:14;9.07;;;4.53;;
53022;SDS011;38913;44.338;11.206;2023-07-16T02:35:39;8.47;;;4.67;;
53022;SDS011;38913;44.338;11.206;2023-07-16T02:38:04;5.97;;;4.50;;
53022;SDS011;38913;44.338;11.206;2023-07-16T02:40:29;6.25;;;4.50;;
53022;SDS011;38913;44.338;11.206;2023-07-16T02:42:55;6.95;;;4.53;;
53022;SDS011;38913;44.338;11.206;2023-07-16T02:45:20;5.60;;;4.38;;
53022;SDS011;38913;44.338;11.206;2023-07-16T02:47:45;6.67;;;4.53;;
53022;SDS011;38913;44.338;11.206;2023-07-16T02:50:11;6.73;;;4.70;;
53022;SDS011;38913;44.338;11.206;2023-07-16T02:52:36;5.53;;;4.13;;
53022;SDS011;38913;44.338;11.206;2023-07-16T02:55:01;8.23;;;4.70;;
53022;SDS011;38913;44.338;11.206;2023-07-16T02:57:27;7.18;;;4.55;;
53022;SDS011;38913;44.338;11.206;2023-07-16T02:59:53;6.47;;;4.50;;
53022;SDS011;38913;44.338;11.206;2023-07-16T03:02:18;7.20;;;4.73;;
53022;SDS011;38913;44.338;11.206;2023-07-16T03:04:43;6.00;;;4.50;;
53022;SDS011;38913;44.338;11.206;2023-07-16T03:07:08;4.93;;;4.43;;
53022;SDS011;38913;44.338;11.206;2023-07-16T03:09:33;6.60;;;4.40;;
53022;SDS011;38913;44.338;11.206;2023-07-16T03:11:59;6.00;;;4.70;;
53022;SDS011;38913;44.338;11.206;2023-07-16T03:14:24;7.47;;;4.70;;
53022;SDS011;38913;44.338;11.206;2023-07-16T03:16:49;6.55;;;4.45;;
53022;SDS011;38913;44.338;11.206;2023-07-16T03:19:15;6.13;;;4.27;;
53022;SDS011;38913;44.338;11.206;2023-07-16T03:21:40;7.03;;;4.90;;
53022;SDS011;38913;44.338;11.206;2023-07-16T03:24:05;5.20;;;4.30;;
53022;SDS011;38913;44.338;11.206;2023-07-16T03:26:31;7.10;;;4.43;;
53022;SDS011;38913;44.338;11.206;2023-07-16T03:28:56;6.90;;;4.47;;
53022;SDS011;38913;44.338;11.206;2023-07-16T03:31:21;4.63;;;4.18;;
53022;SDS011;38913;44.338;11.206;2023-07-16T03:33:46;5.13;;;4.50;;
53022;SDS011;38913;44.338;11.206;2023-07-16T03:36:12;5.07;;;4.30;;
53022;SDS011;38913;44.338;11.206;2023-07-16T03:38:37;5.57;;;4.53;;
53022;SDS011;38913;44.338;11.206;2023-07-16T03:41:02;6.60;;;5.10;;
53022;SDS011;38913;44.338;11.206;2023-07-16T03:43:33;6.93;;;4.67;;
53022;SDS011;38913;44.338;11.206;2023-07-16T03:45:59;7.60;;;5.00;;
53022;SDS011;38913;44.338;11.206;2023-07-16T03:48:24;6.53;;;4.30;;
53022;SDS011;38913;44.338;11.206;2023-07-16T03:50:49;5.50;;;4.10;;
53022;SDS011;38913;44.338;11.206;2023-07-16T03:53:14;5.70;;;4.63;;
53022;SDS011;38913;44.338;11.206;2023-07-16T03:55:40;6.53;;;4.10;;
53022;SDS011;38913;44.338;11.206;2023-07-16T03:58:05;6.10;;;4.33;;
53022;SDS011;38913;44.338;11.206;2023-07-16T04:00:30;5.17;;;4.27;;
53022;SDS011;38913;44.338;11.206;2023-07-16T04:02:56;5.70;;;4.60;;
53022;SDS011;38913;44.338;11.206;2023-07-16T04:05:21;7.57;;;4.82;;
53022;SDS011;38913;44.338;11.206;2023-07-16T04:07:46;6.17;;;4.17;;
53022;SDS011;38913;44.338;11.206;2023-07-16T04:10:11;6.07;;;4.30;;
53022;SDS011;38913;44.338;11.206;2023-07-16T04:12:37;5.43;;;4.60;;
53022;SDS011;38913;44.338;11.206;2023-07-16T04:15:06;5.83;;;4.23;;
53022;SDS011;38913;44.338;11.206;2023-07-16T04:17:31;5.72;;;3.67;;
53022;SDS011;38913;44.338;11.206;2023-07-16T04:19:56;5.90;;;4.03;;
53022;SDS011;38913;44.338;11.206;2023-07-16T04:22:22;5.40;;;4.23;;
53022;SDS011;38913;44.338;11.206;2023-07-16T04:24:47;7.47;;;4.67;;
53022;SDS011;38913;44.338;11.206;2023-07-16T04:27:12;6.75;;;4.05;;
53022;SDS011;38913;44.338;11.206;2023-07-16T04:29:38;6.37;;;3.93;;
53022;SDS011;38913;44.338;11.206;2023-07-16T04:32:03;8.17;;;4.43;;
53022;SDS011;38913;44.338;11.206;2023-07-16T04:34:28;5.88;;;4.30;;
53022;SDS011;38913;44.338;11.206;2023-07-16T04:36:53;7.37;;;4.27;;
53022;SDS011;38913;44.338;11.206;2023-07-16T04:39:19;9.33;;;4.30;;
53022;SDS011;38913;44.338;11.206;2023-07-16T04:41:44;6.70;;;4.07;;
53022;SDS011;38913;44.338;11.206;2023-07-16T04:44:09;6.87;;;4.17;;
53022;SDS011;38913;44.338;11.206;2023-07-16T04:46:34;7.38;;;4.88;;
53022;SDS011;38913;44.338;11.206;2023-07-16T04:49:00;5.07;;;3.90;;
53022;SDS011;38913;44.338;11.206;2023-07-16T04:51:25;9.65;;;4.50;;
53022;SDS011;38913;44.338;11.206;2023-07-16T04:53:51;6.63;;;4.10;;
53022;SDS011;38913;44.338;11.206;2023-07-16T04:56:16;7.00;;;4.33;;
53022;SDS011;38913;44.338;11.206;2023-07-16T04:58:41;5.57;;;4.00;;
53022;SDS011;38913;44.338;11.206;2023-07-16T05:01:10;4.65;;;3.35;;
53022;SDS011;38913;44.338;11.206;2023-07-16T05:03:35;4.15;;;3.70;;
53022;SDS011;38913;44.338;11.206;2023-07-16T05:06:01;6.13;;;3.50;;
53022;SDS011;38913;44.338;11.206;2023-07-16T05:08:26;4.80;;;3.65;;
53022;SDS011;38913;44.338;11.206;2023-07-16T05:10:52;4.45;;;3.53;;
53022;SDS011;38913;44.338;11.206;2023-07-16T05:13:17;5.47;;;3.37;;
53022;SDS011;38913;44.338;11.206;2023-07-16T05:15:45;6.47;;;3.67;;
53022;SDS011;38913;44.338;11.206;2023-07-16T05:18:10;4.13;;;3.35;;
53022;SDS011;38913;44.338;11.206;2023-07-16T05:20:35;6.33;;;3.50;;
53022;SDS011;38913;44.338;11.206;2023-07-16T05:23:01;5.85;;;3.60;;
53022;SDS011;38913;44.338;11.206;2023-07-16T05:25:26;5.70;;;3.30;;
53022;SDS011;38913;44.338;11.206;2023-07-16T05:27:52;3.67;;;2.95;;
53022;SDS011;38913;44.338;11.206;2023-07-16T05:30:17;4.32;;;3.17;;
53022;SDS011;38913;44.338;11.206;2023-07-16T05:32:42;3.30;;;3.00;;
53022;SDS011;38913;44.338;11.206;2023-07-16T05:35:08;5.30;;;3.63;;
53022;SDS011;38913;44.338;11.206;2023-07-16T05:37:33;4.25;;;2.95;;
53022;SDS011;38913;44.338;11.206;2023-07-16T05:39:59;3.97;;;3.17;;
53022;SDS011;38913;44.338;11.206;2023-07-16T05:42:24;4.82;;;3.00;;
53022;SDS011;38913;44.338;11.206;2023-07-16T05:44:50;4.25;;;3.30;;
53022;SDS011;38913;44.338;11.206;2023-07-16T05:47:15;5.68;;;3.30;;
53022;SDS011;38913;44.338;11.206;2023-07-16T05:49:41;5.00;;;3.05;;
53022;SDS011;38913;44.338;11.206;2023-07-16T05:52:06;4.13;;;3.10;;
53022;SDS011;38913;44.338;11.206;2023-07-16T05:54:32;4.22;;;3.08;;
53022;SDS011;38913;44.338;11.206;2023-07-16T05:56:57;3.92;;;3.13;;
53022;SDS011;38913;44.338;11.206;2023-07-16T05:59:23;4.40;;;2.72;;
53022;SDS011;38913;44.338;11.206;2023-07-16T06:01:48;3.35;;;3.05;;
53022;SDS011;38913;44.338;11.206;2023-07-16T06:04:13;4.72;;;3.47;;
53022;SDS011;38913;44.338;11.206;2023-07-16T06:06:39;4.72;;;3.20;;
53022;SDS011;38913;44.338;11.206;2023-07-16T06:09:04;4.13;;;2.97;;
53022;SDS011;38913;44.338;11.206;2023-07-16T06:11:29;3.78;;;2.75;;
53022;SDS011;38913;44.338;11.206;2023-07-16T06:13:55;3.10;;;2.80;;
53022;SDS011;38913;44.338;11.206;2023-07-16T06:16:20;5.45;;;3.10;;
53022;SDS011;38913;44.338;11.206;2023-07-16T06:18:46;3.60;;;3.00;;
53022;SDS011;38913;44.338;11.206;2023-07-16T06:21:11;4.13;;;3.17;;
53022;SDS011;38913;44.338;11.206;2023-07-16T06:23:37;4.18;;;2.80;;
53022;SDS011;38913;44.338;11.206;2023-07-16T06:26:03;3.97;;;2.85;;
53022;SDS011;38913;44.338;11.206;2023-07-16T06:28:29;3.63;;;2.92;;
53022;SDS011;38913;44.338;11.206;2023-07-16T06:30:54;5.85;;;2.97;;
53022;SDS011;38913;44.338;11.206;2023-07-16T06:33:19;4.22;;;2.90;;
53022;SDS011;38913;44.338;11.206;2023-07-16T06:35:45;3.17;;;2.47;;
53022;SDS011;38913;44.338;11.206;2023-07-16T06:38:14;7.57;;;3.20;;
53022;SDS011;38913;44.338;11.206;2023-07-16T06:40:47;4.47;;;2.90;;
53022;SDS011;38913;44.338;11.206;2023-07-16T06:43:16;3.88;;;2.92;;
53022;SDS011;38913;44.338;11.206;2023-07-16T06:45:42;4.20;;;2.75;;
53022;SDS011;38913;44.338;11.206;2023-07-16T06:48:07;4.03;;;2.70;;
53022;SDS011;38913;44.338;11.206;2023-07-16T06:50:33;4.72;;;3.10;;
53022;SDS011;38913;44.338;11.206;2023-07-16T06:52:58;3.88;;;2.85;;
53022;SDS011;38913;44.338;11.206;2023-07-16T06:55:24;3.25;;;2.63;;
53022;SDS011;38913;44.338;11.206;2023-07-16T06:57:49;4.00;;;2.75;;
53022;SDS011;38913;44.338;11.206;2023-07-16T07:00:14;3.55;;;2.72;;
53022;SDS011;38913;44.338;11.206;2023-07-16T07:02:40;3.67;;;2.80;;
53022;SDS011;38913;44.338;11.206;2023-07-16T07:05:06;4.53;;;3.28;;
53022;SDS011;38913;44.338;11.206;2023-07-16T07:07:32;5.05;;;2.85;;
53022;SDS011;38913;44.338;11.206;2023-07-16T07:09:58;3.35;;;2.60;;
53022;SDS011;38913;44.338;11.206;2023-07-16T07:12:23;3.58;;;2.97;;
53022;SDS011;38913;44.338;11.206;2023-07-16T07:14:48;5.13;;;3.00;;
53022;SDS011;38913;44.338;11.206;2023-07-16T07:17:14;5.70;;;2.80;;
53022;SDS011;38913;44.338;11.206;2023-07-16T07:19:40;5.30;;;3.20;;
53022;SDS011;38913;44.338;11.206;2023-07-16T07:22:06;3.28;;;2.70;;
53022;SDS011;38913;44.338;11.206;2023-07-16T07:24:32;4.78;;;2.90;;
53022;SDS011;38913;44.338;11.206;2023-07-16T07:26:57;3.75;;;3.17;;
53022;SDS011;38913;44.338;11.206;2023-07-16T07:29:22;5.32;;;2.88;;
53022;SDS011;38913;44.338;11.206;2023-07-16T07:31:48;4.65;;;3.10;;
53022;SDS011;38913;44.338;11.206;2023-07-16T07:34:13;3.33;;;2.80;;
53022;SDS011;38913;44.338;11.206;2023-07-16T07:36:38;3.10;;;2.80;;
53022;SDS011;38913;44.338;11.206;2023-07-16T07:39:04;3.40;;;2.70;;
53022;SDS011;38913;44.338;11.206;2023-07-16T07:41:29;4.72;;;2.80;;
53022;SDS011;38913;44.338;11.206;2023-07-16T07:43:55;6.00;;;2.60;;
53022;SDS011;38913;44.338;11.206;2023-07-16T07:46:20;4.35;;;2.88;;
53022;SDS011;38913;44.338;11.206;2023-07-16T07:48:45;3.55;;;2.90;;
53022;SDS011;38913;44.338;11.206;2023-07-16T07:51:11;3.47;;;3.03;;
53022;SDS011;38913;44.338;11.206;2023-07-16T07:53:36;7.05;;;3.45;;
53022;SDS011;38913;44.338;11.206;2023-07-16T07:56:02;6.30;;;3.30;;
53022;SDS011;38913;44.338;11.206;2023-07-16T07:58:27;4.10;;;2.90;;
53022;SDS011;38913;44.338;11.206;2023-07-16T08:00:53;5.78;;;3.47;;
53022;SDS011;38913;44.338;11.206;2023-07-16T08:03:18;27.10;;;6.05;;
53022;SDS011;38913;44.338;11.206;2023-07-16T08:05:43;9.63;;;3.63;;
53022;SDS011;38913;44.338;11.206;2023-07-16T08:08:09;7.45;;;3.30;;
53022;SDS011;38913;44.338;11.206;2023-07-16T08:10:34;5.43;;;3.25;;
53022;SDS011;38913;44.338;11.206;2023-07-16T08:12:59;6.20;;;3.53;;
53022;SDS011;38913;44.338;11.206;2023-07-16T08:15:25;6.03;;;3.20;;
53022;SDS011;38913;44.338;11.206;2023-07-16T08:17:50;4.95;;;3.30;;
53022;SDS011;38913;44.338;11.206;2023-07-16T08:20:16;4.75;;;3.00;;
53022;SDS011;38913;44.338;11.206;2023-07-16T08:22:41;6.45;;;4.20;;
53022;SDS011;38913;44.338;11.206;2023-07-16T08:25:07;4.75;;;3.00;;
53022;SDS011;38913;44.338;11.206;2023-07-16T08:27:32;5.25;;;3.40;;
53022;SDS011;38913;44.338;11.206;2023-07-16T08:29:59;6.00;;;3.70;;
53022;SDS011;38913;44.338;11.206;2023-07-16T08:32:25;4.30;;;3.55;;
53022;SDS011;38913;44.338;11.206;2023-07-16T08:34:50;6.15;;;3.40;;
53022;SDS011;38913;44.338;11.206;2023-07-16T08:37:16;6.60;;;3.20;;
53022;SDS011;38913;44.338;11.206;2023-07-16T08:39:41;4.72;;;3.13;;
53022;SDS011;38913;44.338;11.206;2023-07-16T08:42:08;4.38;;;3.45;;
53022;SDS011;38913;44.338;11.206;2023-07-16T08:44:37;6.32;;;3.58;;
53022;SDS011;38913;44.338;11.206;2023-07-16T08:47:04;5.07;;;3.25;;
53022;SDS011;38913;44.338;11.206;2023-07-16T08:49:33;5.07;;;3.20;;
53022;SDS011;38913;44.338;11.206;2023-07-16T08:52:00;7.50;;;3.53;;
53022;SDS011;38913;44.338;11.206;2023-07-16T08:54:27;6.05;;;3.35;;
53022;SDS011;38913;44.338;11.206;2023-07-16T08:56:52;27.23;;;4.05;;
53022;SDS011;38913;44.338;11.206;2023-07-16T08:59:18;4.93;;;3.33;;
53022;SDS011;38913;44.338;11.206;2023-07-16T09:01:43;4.65;;;3.20;;
53022;SDS011;38913;44.338;11.206;2023-07-16T09:04:11;4.85;;;2.92;;
53022;SDS011;38913;44.338;11.206;2023-07-16T09:06:37;5.05;;;3.35;;
53022;SDS011;38913;44.338;11.206;2023-07-16T09:09:02;4.88;;;3.08;;
53022;SDS011;38913;44.338;11.206;2023-07-16T09:11:28;7.95;;;3.15;;
53022;SDS011;38913;44.338;11.206;2023-07-16T09:13:53;3.55;;;2.80;;
53022;SDS011;38913;44.338;11.206;2023-07-16T09:16:19;3.75;;;3.08;;
53022;SDS011;38913;44.338;11.206;2023-07-16T09:18:46;5.47;;;3.42;;
53022;SDS011;38913;44.338;11.206;2023-07-16T09:21:12;4.82;;;3.30;;
53022;SDS011;38913;44.338;11.206;2023-07-16T09:23:38;7.68;;;3.50;;
53022;SDS011;38913;44.338;11.206;2023-07-16T09:26:03;5.05;;;3.45;;
53022;SDS011;38913;44.338;11.206;2023-07-16T09:28:33;5.20;;;3.33;;
53022;SDS011;38913;44.338;11.206;2023-07-16T09:31:05;5.53;;;3.13;;
53022;SDS011;38913;44.338;11.206;2023-07-16T09:33:32;6.82;;;3.40;;
53022;SDS011;38913;44.338;11.206;2023-07-16T09:35:58;5.63;;;3.50;;
53022;SDS011;38913;44.338;11.206;2023-07-16T09:38:24;6.25;;;3.47;;
53022;SDS011;38913;44.338;11.206;2023-07-16T09:40:52;5.30;;;3.58;;
53022;SDS011;38913;44.338;11.206;2023-07-16T09:43:18;5.43;;;3.38;;
53022;SDS011;38913;44.338;11.206;2023-07-16T09:45:43;8.13;;;3.72;;
53022;SDS011;38913;44.338;11.206;2023-07-16T09:48:09;6.53;;;3.47;;
53022;SDS011;38913;44.338;11.206;2023-07-16T09:50:35;6.38;;;3.38;;
53022;SDS011;38913;44.338;11.206;2023-07-16T09:53:04;5.22;;;3.50;;
53022;SDS011;38913;44.338;11.206;2023-07-16T09:55:33;4.88;;;3.00;;
53022;SDS011;38913;44.338;11.206;2023-07-16T09:58:00;7.13;;;3.72;;
53022;SDS011;38913;44.338;11.206;2023-07-16T10:00:28;5.97;;;3.30;;
53022;SDS011;38913;44.338;11.206;2023-07-16T10:02:55;6.45;;;3.60;;
53022;SDS011;38913;44.338;11.206;2023-07-16T10:05:27;5.68;;;3.40;;
53022;SDS011;38913;44.338;11.206;2023-07-16T10:07:54;6.47;;;3.50;;
53022;SDS011;38913;44.338;11.206;2023-07-16T10:10:25;5.25;;;3.30;;
53022;SDS011;38913;44.338;11.206;2023-07-16T10:12:55;6.20;;;3.33;;
53022;SDS011;38913;44.338;11.206;2023-07-16T10:15:27;4.57;;;3.10;;
53022;SDS011;38913;44.338;11.206;2023-07-16T10:17:54;6.57;;;3.00;;
53022;SDS011;38913;44.338;11.206;2023-07-16T10:20:30;6.68;;;2.83;;
53022;SDS011;38913;44.338;11.206;2023-07-16T10:22:57;6.50;;;3.22;;
53022;SDS011;38913;44.338;11.206;2023-07-16T10:25:24;5.93;;;3.08;;
53022;SDS011;38913;44.338;11.206;2023-07-16T10:27:52;8.68;;;3.30;;
53022;SDS011;38913;44.338;11.206;2023-07-16T10:30:18;6.50;;;3.38;;
53022;SDS011;38913;44.338;11.206;2023-07-16T10:32:44;6.85;;;3.03;;
53022;SDS011;38913;44.338;11.206;2023-07-16T10:35:09;7.90;;;3.00;;
53022;SDS011;38913;44.338;11.206;2023-07-16T10:37:35;5.70;;;3.60;;
53022;SDS011;38913;44.338;11.206;2023-07-16T10:40:02;6.70;;;3.17;;
53022;SDS011;38913;44.338;11.206;2023-07-16T10:42:29;5.80;;;3.08;;
53022;SDS011;38913;44.338;11.206;2023-07-16T10:44:55;7.00;;;3.33;;
53022;SDS011;38913;44.338;11.206;2023-07-16T10:47:31;5.40;;;3.00;;
53022;SDS011;38913;44.338;11.206;2023-07-16T10:49:57;6.03;;;3.28;;
53022;SDS011;38913;44.338;11.206;2023-07-16T10:52:23;6.28;;;3.42;;
53022;SDS011;38913;44.338;11.206;2023-07-16T10:54:52;5.57;;;3.22;;
53022;SDS011;38913;44.338;11.206;2023-07-16T10:57:22;6.28;;;3.20;;
53022;SDS011;38913;44.338;11.206;2023-07-16T10:59:51;5.07;;;3.10;;
53022;SDS011;38913;44.338;11.206;2023-07-16T11:02:17;5.20;;;3.05;;
53022;SDS011;38913;44.338;11.206;2023-07-16T11:04:44;5.57;;;2.83;;
53022;SDS011;38913;44.338;11.206;2023-07-16T11:07:11;5.00;;;2.83;;
53022;SDS011;38913;44.338;11.206;2023-07-16T11:09:47;6.07;;;3.00;;
53022;SDS011;38913;44.338;11.206;2023-07-16T11:12:18;6.13;;;3.05;;
53022;SDS011;38913;44.338;11.206;2023-07-16T11:14:47;5.00;;;3.00;;
53022;SDS011;38913;44.338;11.206;2023-07-16T11:17:14;5.57;;;2.80;;
53022;SDS011;38913;44.338;11.206;2023-07-16T11:19:41;7.10;;;2.70;;
53022;SDS011;38913;44.338;11.206;2023-07-16T11:22:10;4.82;;;3.17;;
53022;SDS011;38913;44.338;11.206;2023-07-16T11:29:49;6.32;;;2.95;;
53022;SDS011;38913;44.338;11.206;2023-07-16T11:32:49;5.90;;;3.10;;
53022;SDS011;38913;44.338;11.206;2023-07-16T11:35:10;7.25;;;3.10;;
53022;SDS011;38913;44.338;11.206;2023-07-16T11:37:40;6.60;;;3.08;;
53022;SDS011;38913;44.338;11.206;2023-07-16T11:40:06;5.47;;;2.90;;
53022;SDS011;38913;44.338;11.206;2023-07-16T11:42:34;7.95;;;3.03;;
53022;SDS011;38913;44.338;11.206;2023-07-16T11:45:04;5.40;;;2.53;;
53022;SDS011;38913;44.338;11.206;2023-07-16T11:47:39;6.18;;;3.03;;
53022;SDS011;38913;44.338;11.206;2023-07-16T11:50:05;6.03;;;2.70;;
53022;SDS011;38913;44.338;11.206;2023-07-16T11:52:31;7.47;;;2.83;;
53022;SDS011;38913;44.338;11.206;2023-07-16T11:54:57;5.13;;;2.80;;
53022;SDS011;38913;44.338;11.206;2023-07-16T11:57:26;4.72;;;2.67;;
53022;SDS011;38913;44.338;11.206;2023-07-16T11:59:53;6.20;;;3.03;;
53022;SDS011;38913;44.338;11.206;2023-07-16T12:02:19;4.55;;;2.65;;
53022;SDS011;38913;44.338;11.206;2023-07-16T12:04:45;7.70;;;3.30;;
53022;SDS011;38913;44.338;11.206;2023-07-16T12:07:10;4.78;;;2.63;;
53022;SDS011;38913;44.338;11.206;2023-07-16T12:09:36;5.13;;;2.90;;
53022;SDS011;38913;44.338;11.206;2023-07-16T12:12:01;5.82;;;2.90;;
53022;SDS011;38913;44.338;11.206;2023-07-16T12:14:27;6.72;;;2.90;;
53022;SDS011;38913;44.338;11.206;2023-07-16T12:16:52;6.47;;;2.75;;
53022;SDS011;38913;44.338;11.206;2023-07-16T12:19:18;8.32;;;2.80;;
53022;SDS011;38913;44.338;11.206;2023-07-16T12:21:43;4.70;;;2.88;;
53022;SDS011;38913;44.338;11.206;2023-07-16T12:24:09;6.93;;;2.78;;
53022;SDS011;38913;44.338;11.206;2023-07-16T12:26:34;7.32;;;3.25;;
53022;SDS011;38913;44.338;11.206;2023-07-16T12:29:00;8.30;;;3.42;;
53022;SDS011;38913;44.338;11.206;2023-07-16T12:31:29;6.90;;;3.10;;
53022;SDS011;38913;44.338;11.206;2023-07-16T12:33:56;7.13;;;3.33;;
53022;SDS011;38913;44.338;11.206;2023-07-16T12:36:21;7.47;;;2.95;;
53022;SDS011;38913;44.338;11.206;2023-07-16T12:38:47;7.70;;;2.95;;
53022;SDS011;38913;44.338;11.206;2023-07-16T12:41:12;6.57;;;3.03;;
53022;SDS011;38913;44.338;11.206;2023-07-16T12:43:40;6.15;;;2.90;;
53022;SDS011;38913;44.338;11.206;2023-07-16T12:46:05;4.72;;;3.00;;
53022;SDS011;38913;44.338;11.206;2023-07-16T12:48:31;6.43;;;3.47;;
53022;SDS011;38913;44.338;11.206;2023-07-16T12:50:57;4.85;;;3.25;;
53022;SDS011;38913;44.338;11.206;2023-07-16T12:53:23;4.32;;;2.72;;
53022;SDS011;38913;44.338;11.206;2023-07-16T12:55:49;7.95;;;3.20;;
53022;SDS011;38913;44.338;11.206;2023-07-16T12:58:15;7.60;;;3.08;;
53022;SDS011;38913;44.338;11.206;2023-07-16T13:00:40;4.93;;;2.97;;
53022;SDS011;38913;44.338;11.206;2023-07-16T13:03:06;7.00;;;3.30;;
53022;SDS011;38913;44.338;11.206;2023-07-16T13:05:35;5.47;;;3.45;;
53022;SDS011;38913;44.338;11.206;2023-07-16T13:08:00;5.85;;;3.00;;
53022;SDS011;38913;44.338;11.206;2023-07-16T13:10:25;7.32;;;3.65;;
53022;SDS011;38913;44.338;11.206;2023-07-16T13:12:51;5.90;;;2.92;;
53022;SDS011;38913;44.338;11.206;2023-07-16T13:15:16;6.88;;;3.13;;
53022;SDS011;38913;44.338;11.206;2023-07-16T13:17:42;4.80;;;3.38;;
53022;SDS011;38913;44.338;11.206;2023-07-16T13:20:07;6.38;;;2.83;;
53022;SDS011;38913;44.338;11.206;2023-07-16T13:22:34;4.43;;;3.08;;
53022;SDS011;38913;44.338;11.206;2023-07-16T13:25:00;4.65;;;3.05;;
53022;SDS011;38913;44.338;11.206;2023-07-16T13:27:25;7.03;;;2.95;;
53022;SDS011;38913;44.338;11.206;2023-07-16T13:29:51;6.32;;;3.42;;
53022;SDS011;38913;44.338;11.206;2023-07-16T13:32:16;5.28;;;3.20;;
53022;SDS011;38913;44.338;11.206;2023-07-16T13:34:42;7.57;;;3.15;;
53022;SDS011;38913;44.338;11.206;2023-07-16T13:37:07;7.43;;;3.40;;
53022;SDS011;38913;44.338;11.206;2023-07-16T13:39:33;5.07;;;3.30;;
53022;SDS011;38913;44.338;11.206;2023-07-16T13:41:58;7.50;;;3.22;;
53022;SDS011;38913;44.338;11.206;2023-07-16T13:44:23;9.63;;;3.40;;
53022;SDS011;38913;44.338;11.206;2023-07-16T13:46:49;7.88;;;3.20;;
53022;SDS011;38913;44.338;11.206;2023-07-16T13:49:14;6.20;;;3.35;;
53022;SDS011;38913;44.338;11.206;2023-07-16T13:51:40;6.65;;;3.20;;
53022;SDS011;38913;44.338;11.206;2023-07-16T13:54:05;7.45;;;3.15;;
53022;SDS011;38913;44.338;11.206;2023-07-16T13:56:30;7.28;;;3.20;;
53022;SDS011;38913;44.338;11.206;2023-07-16T13:58:56;12.13;;;3.13;;
53022;SDS011;38913;44.338;11.206;2023-07-16T14:01:22;7.40;;;3.38;;
53022;SDS011;38913;44.338;11.206;2023-07-16T14:03:48;7.95;;;3.50;;
53022;SDS011;38913;44.338;11.206;2023-07-16T14:06:13;8.93;;;3.53;;
53022;SDS011;38913;44.338;11.206;2023-07-16T14:08:39;7.85;;;3.65;;
53022;SDS011;38913;44.338;11.206;2023-07-16T14:11:04;7.82;;;3.83;;
53022;SDS011;38913;44.338;11.206;2023-07-16T14:13:30;7.13;;;3.03;;
53022;SDS011;38913;44.338;11.206;2023-07-16T14:15:55;6.50;;;3.53;;
53022;SDS011;38913;44.338;11.206;2023-07-16T14:18:21;10.18;;;3.60;;
53022;SDS011;38913;44.338;11.206;2023-07-16T14:20:46;5.22;;;2.95;;
53022;SDS011;38913;44.338;11.206;2023-07-16T14:23:11;7.32;;;3.10;;
53022;SDS011;38913;44.338;11.206;2023-07-16T14:25:37;8.55;;;3.90;;
53022;SDS011;38913;44.338;11.206;2023-07-16T14:28:02;7.40;;;3.40;;
53022;SDS011;38913;44.338;11.206;2023-07-16T14:30:28;8.57;;;3.42;;
53022;SDS011;38913;44.338;11.206;2023-07-16T14:32:54;8.07;;;3.65;;
53022;SDS011;38913;44.338;11.206;2023-07-16T14:35:20;8.95;;;3.33;;
53022;SDS011;38913;44.338;11.206;2023-07-16T14:37:45;10.73;;;3.63;;
53022;SDS011;38913;44.338;11.206;2023-07-16T14:40:10;8.65;;;3.40;;